sensor_id;sensor_type;location;lat;lon;timestamp;temperature;humidity
11089;DHT22;5598;48.648;8.908;2023-06-10T00:01:59;19.10;70.50
11089;DHT22;5598;48.648;8.908;2023-06-10T00:04:26;19.00;70.50
11089;DHT22;5598;48.648;8.908;2023-06-10T00:06:53;19.00;71.10
11089;DHT22;5598;48.648;8.908;2023-06-10T00:09:22;19.00;71.30
11089;DHT22;5598;48.648;8.908;2023-06-10T00:11:48;18.80;71.30
11089;DHT22;5598;48.648;8.908;2023-06-10T00:14:15;18.80;71.40
11089;DHT22;5598;48.648;8.908;2023-06-10T00:16:42;18.90;71.40
11089;DHT22;5598;48.648;8.908;2023-06-10T00:19:10;18.90;71.10
11089;DHT22;5598;48.648;8.908;2023-06-10T00:21:39;18.90;71.20
11089;DHT22;5598;48.648;8.908;2023-06-10T00:24:07;18.90;71.30
11089;DHT22;5598;48.648;8.908;2023-06-10T00:26:38;18.80;71.50
11089;DHT22;5598;48.648;8.908;2023-06-10T00:29:06;18.70;72.60
11089;DHT22;5598;48.648;8.908;2023-06-10T00:31:34;18.70;71.90
11089;DHT22;5598;48.648;8.908;2023-06-10T00:34:01;18.70;72.50
11089;DHT22;5598;48.648;8.908;2023-06-10T00:36:27;18.70;72.20
11089;DHT22;5598;48.648;8.908;2023-06-10T00:38:54;18.70;72.90
11089;DHT22;5598;48.648;8.908;2023-06-10T00:41:21;18.60;72.80
11089;DHT22;5598;48.648;8.908;2023-06-10T00:43:49;18.50;72.60
11089;DHT22;5598;48.648;8.908;2023-06-10T00:46:16;18.50;72.70
11089;DHT22;5598;48.648;8.908;2023-06-10T00:48:45;18.40;72.40
11089;DHT22;5598;48.648;8.908;2023-06-10T00:51:12;18.40;72.50
11089;DHT22;5598;48.648;8.908;2023-06-10T00:53:40;18.40;73.00
11089;DHT22;5598;48.648;8.908;2023-06-10T00:56:08;18.30;73.00
11089;DHT22;5598;48.648;8.908;2023-06-10T00:58:35;18.30;73.20
11089;DHT22;5598;48.648;8.908;2023-06-10T01:01:03;18.20;73.80
11089;DHT22;5598;48.648;8.908;2023-06-10T01:03:30;18.20;73.60
11089;DHT22;5598;48.648;8.908;2023-06-10T01:06:06;18.00;73.80
11089;DHT22;5598;48.648;8.908;2023-06-10T01:08:49;18.10;74.10
11089;DHT22;5598;48.648;8.908;2023-06-10T01:11:27;17.90;73.60
11089;DHT22;5598;48.648;8.908;2023-06-10T01:13:55;17.90;74.10
11089;DHT22;5598;48.648;8.908;2023-06-10T01:16:24;17.80;73.90
11089;DHT22;5598;48.648;8.908;2023-06-10T01:18:51;17.80;74.30
11089;DHT22;5598;48.648;8.908;2023-06-10T01:21:21;17.80;74.30
11089;DHT22;5598;48.648;8.908;2023-06-10T01:23:50;17.70;74.20
11089;DHT22;5598;48.648;8.908;2023-06-10T01:26:19;17.60;74.60
11089;DHT22;5598;48.648;8.908;2023-06-10T01:28:50;17.70;74.60
11089;DHT22;5598;48.648;8.908;2023-06-10T01:31:26;17.60;74.60
11089;DHT22;5598;48.648;8.908;2023-06-10T01:33:59;17.50;74.90
11089;DHT22;5598;48.648;8.908;2023-06-10T01:36:28;17.60;75.90
11089;DHT22;5598;48.648;8.908;2023-06-10T01:38:56;17.60;75.70
11089;DHT22;5598;48.648;8.908;2023-06-10T01:41:23;17.50;75.40
11089;DHT22;5598;48.648;8.908;2023-06-10T01:43:51;17.50;76.00
11089;DHT22;5598;48.648;8.908;2023-06-10T01:46:18;17.40;75.70
11089;DHT22;5598;48.648;8.908;2023-06-10T01:48:46;17.40;75.70
11089;DHT22;5598;48.648;8.908;2023-06-10T01:51:13;17.30;76.00
11089;DHT22;5598;48.648;8.908;2023-06-10T01:53:41;17.20;75.80
11089;DHT22;5598;48.648;8.908;2023-06-10T01:56:08;17.10;75.90
11089;DHT22;5598;48.648;8.908;2023-06-10T01:58:35;17.10;76.60
11089;DHT22;5598;48.648;8.908;2023-06-10T02:01:02;17.10;76.60
11089;DHT22;5598;48.648;8.908;2023-06-10T02:03:29;17.00;76.50
11089;DHT22;5598;48.648;8.908;2023-06-10T02:05:55;17.00;76.50
11089;DHT22;5598;48.648;8.908;2023-06-10T02:08:22;16.80;77.00
11089;DHT22;5598;48.648;8.908;2023-06-10T02:10:50;16.80;77.60
11089;DHT22;5598;48.648;8.908;2023-06-10T02:13:17;16.80;77.20
11089;DHT22;5598;48.648;8.908;2023-06-10T02:15:44;16.70;76.90
11089;DHT22;5598;48.648;8.908;2023-06-10T02:18:11;16.70;77.20
11089;DHT22;5598;48.648;8.908;2023-06-10T02:20:38;16.70;77.50
11089;DHT22;5598;48.648;8.908;2023-06-10T02:23:05;16.80;77.10
11089;DHT22;5598;48.648;8.908;2023-06-10T02:25:32;16.80;77.70
11089;DHT22;5598;48.648;8.908;2023-06-10T02:28:00;16.80;76.80
11089;DHT22;5598;48.648;8.908;2023-06-10T02:30:28;16.70;77.40
11089;DHT22;5598;48.648;8.908;2023-06-10T02:32:55;16.80;77.50
11089;DHT22;5598;48.648;8.908;2023-06-10T02:35:22;16.70;77.10
11089;DHT22;5598;48.648;8.908;2023-06-10T02:37:49;16.60;78.00
11089;DHT22;5598;48.648;8.908;2023-06-10T02:40:16;16.50;77.80
11089;DHT22;5598;48.648;8.908;2023-06-10T02:42:43;16.50;78.00
11089;DHT22;5598;48.648;8.908;2023-06-10T02:45:11;16.50;78.10
11089;DHT22;5598;48.648;8.908;2023-06-10T02:47:38;16.40;78.30
11089;DHT22;5598;48.648;8.908;2023-06-10T02:50:05;16.40;78.80
11089;DHT22;5598;48.648;8.908;2023-06-10T02:52:32;16.40;78.10
11089;DHT22;5598;48.648;8.908;2023-06-10T02:54:59;16.30;78.50
11089;DHT22;5598;48.648;8.908;2023-06-10T02:57:26;16.20;78.70
11089;DHT22;5598;48.648;8.908;2023-06-10T02:59:53;16.20;78.80
11089;DHT22;5598;48.648;8.908;2023-06-10T03:02:21;16.20;78.90
11089;DHT22;5598;48.648;8.908;2023-06-10T03:04:54;16.20;79.20
11089;DHT22;5598;48.648;8.908;2023-06-10T03:07:21;16.10;79.10
11089;DHT22;5598;48.648;8.908;2023-06-10T03:09:48;16.10;79.80
11089;DHT22;5598;48.648;8.908;2023-06-10T03:12:15;16.00;79.70
11089;DHT22;5598;48.648;8.908;2023-06-10T03:14:42;16.00;79.70
11089;DHT22;5598;48.648;8.908;2023-06-10T03:17:09;15.90;79.40
11089;DHT22;5598;48.648;8.908;2023-06-10T03:19:37;15.90;79.30
11089;DHT22;5598;48.648;8.908;2023-06-10T03:22:09;15.90;80.20
11089;DHT22;5598;48.648;8.908;2023-06-10T03:24:36;15.80;79.60
11089;DHT22;5598;48.648;8.908;2023-06-10T03:27:06;15.80;80.20
11089;DHT22;5598;48.648;8.908;2023-06-10T03:29:33;15.90;80.10
11089;DHT22;5598;48.648;8.908;2023-06-10T03:32:00;15.90;79.90
11089;DHT22;5598;48.648;8.908;2023-06-10T03:34:27;15.90;80.40
11089;DHT22;5598;48.648;8.908;2023-06-10T03:36:56;15.90;80.20
11089;DHT22;5598;48.648;8.908;2023-06-10T03:39:23;15.90;80.50
11089;DHT22;5598;48.648;8.908;2023-06-10T03:41:50;15.90;80.70
11089;DHT22;5598;48.648;8.908;2023-06-10T03:44:17;15.80;81.30
11089;DHT22;5598;48.648;8.908;2023-06-10T03:46:44;15.80;80.90
11089;DHT22;5598;48.648;8.908;2023-06-10T03:49:11;15.70;81.20
11089;DHT22;5598;48.648;8.908;2023-06-10T03:51:37;15.80;80.80
11089;DHT22;5598;48.648;8.908;2023-06-10T03:54:06;15.70;80.50
11089;DHT22;5598;48.648;8.908;2023-06-10T03:56:33;15.70;80.30
11089;DHT22;5598;48.648;8.908;2023-06-10T03:59:00;15.70;80.60
11089;DHT22;5598;48.648;8.908;2023-06-10T04:01:26;15.70;81.20
11089;DHT22;5598;48.648;8.908;2023-06-10T04:03:53;15.60;81.70
11089;DHT22;5598;48.648;8.908;2023-06-10T04:06:20;15.60;81.80
11089;DHT22;5598;48.648;8.908;2023-06-10T04:08:50;15.50;82.10
11089;DHT22;5598;48.648;8.908;2023-06-10T04:11:18;15.60;82.00
11089;DHT22;5598;48.648;8.908;2023-06-10T04:13:45;15.60;81.70
11089;DHT22;5598;48.648;8.908;2023-06-10T04:16:12;15.60;82.10
11089;DHT22;5598;48.648;8.908;2023-06-10T04:18:39;15.60;82.30
11089;DHT22;5598;48.648;8.908;2023-06-10T04:21:07;15.50;81.70
11089;DHT22;5598;48.648;8.908;2023-06-10T04:23:35;15.60;81.30
11089;DHT22;5598;48.648;8.908;2023-06-10T04:26:02;15.60;82.20
11089;DHT22;5598;48.648;8.908;2023-06-10T04:28:30;15.60;82.90
11089;DHT22;5598;48.648;8.908;2023-06-10T04:30:57;15.60;83.30
11089;DHT22;5598;48.648;8.908;2023-06-10T04:33:24;15.60;84.20
11089;DHT22;5598;48.648;8.908;2023-06-10T04:35:50;15.60;83.80
11089;DHT22;5598;48.648;8.908;2023-06-10T04:38:17;15.60;83.90
11089;DHT22;5598;48.648;8.908;2023-06-10T04:40:44;15.60;84.20
11089;DHT22;5598;48.648;8.908;2023-06-10T04:43:11;15.60;83.70
11089;DHT22;5598;48.648;8.908;2023-06-10T04:45:40;15.70;83.80
11089;DHT22;5598;48.648;8.908;2023-06-10T04:48:10;15.70;83.60
11089;DHT22;5598;48.648;8.908;2023-06-10T04:50:37;15.90;83.80
11089;DHT22;5598;48.648;8.908;2023-06-10T04:53:04;15.90;83.40
11089;DHT22;5598;48.648;8.908;2023-06-10T04:55:31;16.00;84.10
11089;DHT22;5598;48.648;8.908;2023-06-10T04:57:58;16.00;83.90
11089;DHT22;5598;48.648;8.908;2023-06-10T05:00:25;16.00;83.70
11089;DHT22;5598;48.648;8.908;2023-06-10T05:02:53;16.00;83.70
11089;DHT22;5598;48.648;8.908;2023-06-10T05:05:21;16.00;83.10
11089;DHT22;5598;48.648;8.908;2023-06-10T05:07:48;16.00;83.60
11089;DHT22;5598;48.648;8.908;2023-06-10T05:10:15;16.10;84.00
11089;DHT22;5598;48.648;8.908;2023-06-10T05:12:42;16.10;84.30
11089;DHT22;5598;48.648;8.908;2023-06-10T05:15:09;16.10;84.20
11089;DHT22;5598;48.648;8.908;2023-06-10T05:17:36;16.20;84.20
11089;DHT22;5598;48.648;8.908;2023-06-10T05:20:05;16.30;85.60
11089;DHT22;5598;48.648;8.908;2023-06-10T05:22:33;16.50;86.60
11089;DHT22;5598;48.648;8.908;2023-06-10T05:25:00;16.50;86.60
11089;DHT22;5598;48.648;8.908;2023-06-10T05:27:27;16.50;86.60
11089;DHT22;5598;48.648;8.908;2023-06-10T05:29:54;16.60;86.70
11089;DHT22;5598;48.648;8.908;2023-06-10T05:32:20;16.60;86.70
11089;DHT22;5598;48.648;8.908;2023-06-10T05:34:47;16.70;86.90
11089;DHT22;5598;48.648;8.908;2023-06-10T05:37:15;16.80;87.00
11089;DHT22;5598;48.648;8.908;2023-06-10T05:39:42;16.70;86.90
11089;DHT22;5598;48.648;8.908;2023-06-10T05:42:09;16.90;87.30
11089;DHT22;5598;48.648;8.908;2023-06-10T05:44:36;16.90;87.50
11089;DHT22;5598;48.648;8.908;2023-06-10T05:47:03;17.00;87.20
11089;DHT22;5598;48.648;8.908;2023-06-10T05:49:30;17.10;88.60
11089;DHT22;5598;48.648;8.908;2023-06-10T05:51:57;17.20;88.60
11089;DHT22;5598;48.648;8.908;2023-06-10T05:54:26;17.30;88.30
11089;DHT22;5598;48.648;8.908;2023-06-10T05:56:52;17.30;86.70
11089;DHT22;5598;48.648;8.908;2023-06-10T05:59:19;17.40;86.50
11089;DHT22;5598;48.648;8.908;2023-06-10T06:01:48;17.50;85.40
11089;DHT22;5598;48.648;8.908;2023-06-10T06:04:15;17.70;85.80
11089;DHT22;5598;48.648;8.908;2023-06-10T06:06:42;17.80;85.80
11089;DHT22;5598;48.648;8.908;2023-06-10T06:09:09;17.90;84.70
11089;DHT22;5598;48.648;8.908;2023-06-10T06:11:37;18.00;84.80
11089;DHT22;5598;48.648;8.908;2023-06-10T06:14:04;18.10;84.50
11089;DHT22;5598;48.648;8.908;2023-06-10T06:16:30;18.30;83.60
11089;DHT22;5598;48.648;8.908;2023-06-10T06:18:57;18.40;82.80
11089;DHT22;5598;48.648;8.908;2023-06-10T06:21:24;18.60;82.70
11089;DHT22;5598;48.648;8.908;2023-06-10T06:23:51;18.60;81.70
11089;DHT22;5598;48.648;8.908;2023-06-10T06:26:18;18.60;80.90
11089;DHT22;5598;48.648;8.908;2023-06-10T06:28:46;18.50;81.90
11089;DHT22;5598;48.648;8.908;2023-06-10T06:31:13;18.50;81.90
11089;DHT22;5598;48.648;8.908;2023-06-10T06:33:39;18.60;82.10
11089;DHT22;5598;48.648;8.908;2023-06-10T06:36:06;18.70;82.50
11089;DHT22;5598;48.648;8.908;2023-06-10T06:38:33;18.90;82.30
11089;DHT22;5598;48.648;8.908;2023-06-10T06:41:00;18.80;81.10
11089;DHT22;5598;48.648;8.908;2023-06-10T06:43:29;18.80;81.20
11089;DHT22;5598;48.648;8.908;2023-06-10T06:45:57;18.90;82.30
11089;DHT22;5598;48.648;8.908;2023-06-10T06:48:24;19.00;82.70
11089;DHT22;5598;48.648;8.908;2023-06-10T06:50:51;19.10;82.00
11089;DHT22;5598;48.648;8.908;2023-06-10T06:53:18;19.20;82.10
11089;DHT22;5598;48.648;8.908;2023-06-10T06:55:45;19.30;82.70
11089;DHT22;5598;48.648;8.908;2023-06-10T06:58:11;19.50;82.90
11089;DHT22;5598;48.648;8.908;2023-06-10T07:00:38;19.60;82.90
11089;DHT22;5598;48.648;8.908;2023-06-10T07:03:06;19.60;82.40
11089;DHT22;5598;48.648;8.908;2023-06-10T07:05:33;19.70;82.60
11089;DHT22;5598;48.648;8.908;2023-06-10T07:08:00;19.90;82.30
11089;DHT22;5598;48.648;8.908;2023-06-10T07:10:27;20.00;81.90
11089;DHT22;5598;48.648;8.908;2023-06-10T07:12:54;20.00;82.30
11089;DHT22;5598;48.648;8.908;2023-06-10T07:15:21;20.10;81.60
11089;DHT22;5598;48.648;8.908;2023-06-10T07:17:48;20.10;81.60
11089;DHT22;5598;48.648;8.908;2023-06-10T07:20:16;20.30;82.20
11089;DHT22;5598;48.648;8.908;2023-06-10T07:22:43;20.50;81.30
11089;DHT22;5598;48.648;8.908;2023-06-10T07:25:10;20.60;80.80
11089;DHT22;5598;48.648;8.908;2023-06-10T07:27:37;20.80;81.10
11089;DHT22;5598;48.648;8.908;2023-06-10T07:30:05;20.90;80.20
11089;DHT22;5598;48.648;8.908;2023-06-10T07:32:33;21.00;80.90
11089;DHT22;5598;48.648;8.908;2023-06-10T07:35:00;21.10;79.80
11089;DHT22;5598;48.648;8.908;2023-06-10T07:37:28;21.20;79.20
11089;DHT22;5598;48.648;8.908;2023-06-10T07:39:56;21.30;78.00
11089;DHT22;5598;48.648;8.908;2023-06-10T07:42:23;21.40;79.60
11089;DHT22;5598;48.648;8.908;2023-06-10T07:44:50;21.50;78.60
11089;DHT22;5598;48.648;8.908;2023-06-10T07:47:16;21.60;78.30
11089;DHT22;5598;48.648;8.908;2023-06-10T07:49:43;21.70;77.10
11089;DHT22;5598;48.648;8.908;2023-06-10T07:52:10;21.80;76.00
11089;DHT22;5598;48.648;8.908;2023-06-10T07:54:38;21.90;75.40
11089;DHT22;5598;48.648;8.908;2023-06-10T07:57:05;22.00;76.10
11089;DHT22;5598;48.648;8.908;2023-06-10T07:59:33;22.10;75.30
11089;DHT22;5598;48.648;8.908;2023-06-10T08:02:00;22.20;75.00
11089;DHT22;5598;48.648;8.908;2023-06-10T08:04:26;22.30;74.60
11089;DHT22;5598;48.648;8.908;2023-06-10T08:06:53;22.40;74.90
11089;DHT22;5598;48.648;8.908;2023-06-10T08:09:20;22.60;74.70
11089;DHT22;5598;48.648;8.908;2023-06-10T08:11:50;22.80;74.90
11089;DHT22;5598;48.648;8.908;2023-06-10T08:14:17;23.10;73.00
11089;DHT22;5598;48.648;8.908;2023-06-10T08:16:43;23.20;71.90
11089;DHT22;5598;48.648;8.908;2023-06-10T08:19:11;23.50;72.10
11089;DHT22;5598;48.648;8.908;2023-06-10T08:21:38;23.70;71.70
11089;DHT22;5598;48.648;8.908;2023-06-10T08:24:05;23.80;70.80
11089;DHT22;5598;48.648;8.908;2023-06-10T08:26:32;24.10;70.50
11089;DHT22;5598;48.648;8.908;2023-06-10T08:29:01;24.30;68.90
11089;DHT22;5598;48.648;8.908;2023-06-10T08:31:27;24.60;68.30
11089;DHT22;5598;48.648;8.908;2023-06-10T08:33:54;24.80;68.20
11089;DHT22;5598;48.648;8.908;2023-06-10T08:36:21;25.10;67.70
11089;DHT22;5598;48.648;8.908;2023-06-10T08:38:48;25.40;65.30
11089;DHT22;5598;48.648;8.908;2023-06-10T08:41:17;25.60;65.20
11089;DHT22;5598;48.648;8.908;2023-06-10T08:43:57;26.00;64.00
11089;DHT22;5598;48.648;8.908;2023-06-10T08:46:28;26.10;63.90
11089;DHT22;5598;48.648;8.908;2023-06-10T08:48:57;26.20;63.70
11089;DHT22;5598;48.648;8.908;2023-06-10T08:51:30;26.30;63.20
11089;DHT22;5598;48.648;8.908;2023-06-10T08:54:01;26.60;63.50
11089;DHT22;5598;48.648;8.908;2023-06-10T08:56:29;26.60;61.90
11089;DHT22;5598;48.648;8.908;2023-06-10T08:58:58;26.60;62.10
11089;DHT22;5598;48.648;8.908;2023-06-10T09:01:27;26.60;62.80
11089;DHT22;5598;48.648;8.908;2023-06-10T09:03:54;26.70;64.00
11089;DHT22;5598;48.648;8.908;2023-06-10T09:06:22;27.10;63.70
11089;DHT22;5598;48.648;8.908;2023-06-10T09:08:49;27.60;62.30
11089;DHT22;5598;48.648;8.908;2023-06-10T09:11:16;28.00;60.70
11089;DHT22;5598;48.648;8.908;2023-06-10T09:13:43;28.20;60.00
11089;DHT22;5598;48.648;8.908;2023-06-10T09:16:10;28.50;59.90
11089;DHT22;5598;48.648;8.908;2023-06-10T09:18:39;28.60;58.00
11089;DHT22;5598;48.648;8.908;2023-06-10T09:21:06;28.60;58.50
11089;DHT22;5598;48.648;8.908;2023-06-10T09:23:33;28.70;57.90
11089;DHT22;5598;48.648;8.908;2023-06-10T09:26:00;28.80;57.90
11089;DHT22;5598;48.648;8.908;2023-06-10T09:28:29;28.80;57.20
11089;DHT22;5598;48.648;8.908;2023-06-10T09:31:03;28.80;57.90
11089;DHT22;5598;48.648;8.908;2023-06-10T09:33:30;28.80;58.00
11089;DHT22;5598;48.648;8.908;2023-06-10T09:36:01;29.00;57.70
11089;DHT22;5598;48.648;8.908;2023-06-10T09:38:33;29.20;57.30
11089;DHT22;5598;48.648;8.908;2023-06-10T09:41:00;29.50;57.90
11089;DHT22;5598;48.648;8.908;2023-06-10T09:43:39;29.50;55.70
11089;DHT22;5598;48.648;8.908;2023-06-10T09:46:06;29.80;56.10
11089;DHT22;5598;48.648;8.908;2023-06-10T09:48:35;30.10;55.90
11089;DHT22;5598;48.648;8.908;2023-06-10T09:51:08;30.40;54.40
11089;DHT22;5598;48.648;8.908;2023-06-10T09:53:35;30.70;54.70
11089;DHT22;5598;48.648;8.908;2023-06-10T09:56:02;30.80;54.50
11089;DHT22;5598;48.648;8.908;2023-06-10T09:58:36;31.00;53.90
11089;DHT22;5598;48.648;8.908;2023-06-10T10:01:06;31.30;52.50
11089;DHT22;5598;48.648;8.908;2023-06-10T10:03:43;31.30;53.30
11089;DHT22;5598;48.648;8.908;2023-06-10T10:06:13;31.40;52.30
11089;DHT22;5598;48.648;8.908;2023-06-10T10:08:40;31.00;52.50
11089;DHT22;5598;48.648;8.908;2023-06-10T10:11:07;30.70;53.30
11089;DHT22;5598;48.648;8.908;2023-06-10T10:13:35;30.50;52.70
11089;DHT22;5598;48.648;8.908;2023-06-10T10:16:04;30.30;53.70
11089;DHT22;5598;48.648;8.908;2023-06-10T10:18:33;30.30;53.30
11089;DHT22;5598;48.648;8.908;2023-06-10T10:21:06;30.20;54.30
11089;DHT22;5598;48.648;8.908;2023-06-10T10:23:42;30.30;54.60
11089;DHT22;5598;48.648;8.908;2023-06-10T10:26:10;30.50;53.50
11089;DHT22;5598;48.648;8.908;2023-06-10T10:28:41;30.70;54.60
11089;DHT22;5598;48.648;8.908;2023-06-10T10:31:09;30.80;53.70
11089;DHT22;5598;48.648;8.908;2023-06-10T10:33:42;31.00;53.50
11089;DHT22;5598;48.648;8.908;2023-06-10T10:36:13;31.20;54.00
11089;DHT22;5598;48.648;8.908;2023-06-10T10:38:41;31.40;54.80
11089;DHT22;5598;48.648;8.908;2023-06-10T10:41:09;31.50;52.90
11089;DHT22;5598;48.648;8.908;2023-06-10T10:43:36;31.40;53.70
11089;DHT22;5598;48.648;8.908;2023-06-10T10:46:15;31.50;53.20
11089;DHT22;5598;48.648;8.908;2023-06-10T10:48:43;31.60;52.10
11089;DHT22;5598;48.648;8.908;2023-06-10T10:51:10;31.50;52.00
11089;DHT22;5598;48.648;8.908;2023-06-10T10:53:38;31.50;52.10
11089;DHT22;5598;48.648;8.908;2023-06-10T10:56:07;31.60;51.70
11089;DHT22;5598;48.648;8.908;2023-06-10T10:58:35;31.70;52.50
11089;DHT22;5598;48.648;8.908;2023-06-10T11:01:10;32.00;52.50
11089;DHT22;5598;48.648;8.908;2023-06-10T11:03:43;32.40;53.10
11089;DHT22;5598;48.648;8.908;2023-06-10T11:06:13;32.80;52.50
11089;DHT22;5598;48.648;8.908;2023-06-10T11:08:47;33.30;51.30
11089;DHT22;5598;48.648;8.908;2023-06-10T11:11:20;33.50;49.20
11089;DHT22;5598;48.648;8.908;2023-06-10T11:14:06;33.60;49.60
11089;DHT22;5598;48.648;8.908;2023-06-10T11:16:39;33.80;50.60
11089;DHT22;5598;48.648;8.908;2023-06-10T11:19:07;33.90;49.50
11089;DHT22;5598;48.648;8.908;2023-06-10T11:21:57;33.90;48.90
11089;DHT22;5598;48.648;8.908;2023-06-10T11:24:24;33.60;50.30
11089;DHT22;5598;48.648;8.908;2023-06-10T11:26:53;33.30;50.60
11089;DHT22;5598;48.648;8.908;2023-06-10T11:29:20;33.00;49.80
11089;DHT22;5598;48.648;8.908;2023-06-10T11:31:51;32.80;49.60
11089;DHT22;5598;48.648;8.908;2023-06-10T11:34:22;32.60;50.00
11089;DHT22;5598;48.648;8.908;2023-06-10T11:36:51;32.60;50.50
11089;DHT22;5598;48.648;8.908;2023-06-10T11:39:19;33.00;49.70
11089;DHT22;5598;48.648;8.908;2023-06-10T11:41:46;33.10;48.50
11089;DHT22;5598;48.648;8.908;2023-06-10T11:44:15;33.20;50.00
11089;DHT22;5598;48.648;8.908;2023-06-10T11:46:42;33.60;49.20
11089;DHT22;5598;48.648;8.908;2023-06-10T11:49:09;34.00;48.00
11089;DHT22;5598;48.648;8.908;2023-06-10T11:51:37;34.60;48.80
11089;DHT22;5598;48.648;8.908;2023-06-10T11:54:06;35.20;48.30
11089;DHT22;5598;48.648;8.908;2023-06-10T11:56:34;35.60;48.30
11089;DHT22;5598;48.648;8.908;2023-06-10T11:59:02;36.10;46.30
11089;DHT22;5598;48.648;8.908;2023-06-10T12:01:33;36.30;45.00
11089;DHT22;5598;48.648;8.908;2023-06-10T12:04:03;35.90;46.60
11089;DHT22;5598;48.648;8.908;2023-06-10T12:06:40;35.70;45.40
11089;DHT22;5598;48.648;8.908;2023-06-10T12:09:16;35.60;46.50
11089;DHT22;5598;48.648;8.908;2023-06-10T12:11:44;36.00;46.90
11089;DHT22;5598;48.648;8.908;2023-06-10T12:14:11;36.10;46.40
11089;DHT22;5598;48.648;8.908;2023-06-10T12:16:39;36.00;46.80
11089;DHT22;5598;48.648;8.908;2023-06-10T12:19:06;35.90;46.70
11089;DHT22;5598;48.648;8.908;2023-06-10T12:21:36;36.00;46.60
11089;DHT22;5598;48.648;8.908;2023-06-10T12:24:06;35.60;46.00
11089;DHT22;5598;48.648;8.908;2023-06-10T12:26:37;35.10;47.70
11089;DHT22;5598;48.648;8.908;2023-06-10T12:29:22;35.00;47.70
11089;DHT22;5598;48.648;8.908;2023-06-10T12:31:59;35.10;48.10
11089;DHT22;5598;48.648;8.908;2023-06-10T12:34:30;35.20;46.20
11089;DHT22;5598;48.648;8.908;2023-06-10T12:36:57;35.00;47.40
11089;DHT22;5598;48.648;8.908;2023-06-10T12:39:24;34.80;47.10
11089;DHT22;5598;48.648;8.908;2023-06-10T12:41:51;34.80;47.20
11089;DHT22;5598;48.648;8.908;2023-06-10T12:44:18;34.50;47.00
11089;DHT22;5598;48.648;8.908;2023-06-10T12:46:54;34.20;47.50
11089;DHT22;5598;48.648;8.908;2023-06-10T12:49:22;33.90;48.90
11089;DHT22;5598;48.648;8.908;2023-06-10T12:51:49;33.90;49.50
11089;DHT22;5598;48.648;8.908;2023-06-10T12:54:15;33.80;47.90
11089;DHT22;5598;48.648;8.908;2023-06-10T12:56:42;33.10;48.70
11089;DHT22;5598;48.648;8.908;2023-06-10T12:59:09;33.00;49.20
11089;DHT22;5598;48.648;8.908;2023-06-10T13:01:37;32.90;49.30
11089;DHT22;5598;48.648;8.908;2023-06-10T13:04:05;33.00;49.80
11089;DHT22;5598;48.648;8.908;2023-06-10T13:06:34;33.10;48.90
11089;DHT22;5598;48.648;8.908;2023-06-10T13:09:05;33.00;47.90
11089;DHT22;5598;48.648;8.908;2023-06-10T13:11:33;33.00;47.90
11089;DHT22;5598;48.648;8.908;2023-06-10T13:14:00;32.90;49.20
11089;DHT22;5598;48.648;8.908;2023-06-10T13:16:28;32.50;48.60
11089;DHT22;5598;48.648;8.908;2023-06-10T13:18:55;32.30;49.60
11089;DHT22;5598;48.648;8.908;2023-06-10T13:21:23;32.10;50.20
11089;DHT22;5598;48.648;8.908;2023-06-10T13:23:51;31.90;50.90
11089;DHT22;5598;48.648;8.908;2023-06-10T13:26:18;31.60;50.90
11089;DHT22;5598;48.648;8.908;2023-06-10T13:28:45;31.40;51.10
11089;DHT22;5598;48.648;8.908;2023-06-10T13:31:11;31.40;50.40
11089;DHT22;5598;48.648;8.908;2023-06-10T13:33:38;31.50;50.40
11089;DHT22;5598;48.648;8.908;2023-06-10T13:36:06;31.70;52.20
11089;DHT22;5598;48.648;8.908;2023-06-10T13:38:32;32.00;52.00
11089;DHT22;5598;48.648;8.908;2023-06-10T13:41:01;32.30;51.10
11089;DHT22;5598;48.648;8.908;2023-06-10T13:43:27;32.50;51.50
11089;DHT22;5598;48.648;8.908;2023-06-10T13:45:54;32.60;51.50
11089;DHT22;5598;48.648;8.908;2023-06-10T13:48:21;32.80;51.30
11089;DHT22;5598;48.648;8.908;2023-06-10T13:50:48;33.00;49.80
11089;DHT22;5598;48.648;8.908;2023-06-10T13:53:14;33.10;50.30
11089;DHT22;5598;48.648;8.908;2023-06-10T13:55:41;33.30;50.90
11089;DHT22;5598;48.648;8.908;2023-06-10T13:58:09;33.40;50.10
11089;DHT22;5598;48.648;8.908;2023-06-10T14:00:36;33.20;48.50
11089;DHT22;5598;48.648;8.908;2023-06-10T14:03:03;33.00;49.10
11089;DHT22;5598;48.648;8.908;2023-06-10T14:05:30;32.80;49.60
11089;DHT22;5598;48.648;8.908;2023-06-10T14:07:57;32.70;51.30
11089;DHT22;5598;48.648;8.908;2023-06-10T14:10:24;32.80;50.90
11089;DHT22;5598;48.648;8.908;2023-06-10T14:12:50;32.90;50.50
11089;DHT22;5598;48.648;8.908;2023-06-10T14:15:19;33.00;48.20
11089;DHT22;5598;48.648;8.908;2023-06-10T14:17:46;32.90;48.60
11089;DHT22;5598;48.648;8.908;2023-06-10T14:20:12;32.90;47.70
11089;DHT22;5598;48.648;8.908;2023-06-10T14:22:39;32.80;48.70
11089;DHT22;5598;48.648;8.908;2023-06-10T14:25:07;32.80;48.00
11089;DHT22;5598;48.648;8.908;2023-06-10T14:27:34;32.60;48.00
11089;DHT22;5598;48.648;8.908;2023-06-10T14:30:01;32.70;51.00
11089;DHT22;5598;48.648;8.908;2023-06-10T14:32:29;32.90;50.50
11089;DHT22;5598;48.648;8.908;2023-06-10T14:34:56;33.00;50.30
11089;DHT22;5598;48.648;8.908;2023-06-10T14:37:23;33.10;49.60
11089;DHT22;5598;48.648;8.908;2023-06-10T14:39:50;33.00;48.40
11089;DHT22;5598;48.648;8.908;2023-06-10T14:42:16;32.70;48.70
11089;DHT22;5598;48.648;8.908;2023-06-10T14:44:43;32.40;49.40
11089;DHT22;5598;48.648;8.908;2023-06-10T14:47:10;32.10;49.30
11089;DHT22;5598;48.648;8.908;2023-06-10T14:49:38;31.80;50.30
11089;DHT22;5598;48.648;8.908;2023-06-10T14:52:07;31.60;51.30
11089;DHT22;5598;48.648;8.908;2023-06-10T14:54:34;31.40;51.10
11089;DHT22;5598;48.648;8.908;2023-06-10T14:57:01;31.20;50.80
11089;DHT22;5598;48.648;8.908;2023-06-10T14:59:28;31.10;50.70
11089;DHT22;5598;48.648;8.908;2023-06-10T15:01:55;30.90;51.50
11089;DHT22;5598;48.648;8.908;2023-06-10T15:04:22;30.90;51.20
11089;DHT22;5598;48.648;8.908;2023-06-10T15:06:50;30.90;52.20
11089;DHT22;5598;48.648;8.908;2023-06-10T15:09:17;31.00;51.30
11089;DHT22;5598;48.648;8.908;2023-06-10T15:11:44;31.00;51.10
11089;DHT22;5598;48.648;8.908;2023-06-10T15:14:11;31.10;51.30
11089;DHT22;5598;48.648;8.908;2023-06-10T15:16:38;31.10;50.30
11089;DHT22;5598;48.648;8.908;2023-06-10T15:19:05;31.10;51.70
11089;DHT22;5598;48.648;8.908;2023-06-10T15:21:34;31.20;52.40
11089;DHT22;5598;48.648;8.908;2023-06-10T15:24:03;31.20;50.40
11089;DHT22;5598;48.648;8.908;2023-06-10T15:26:30;31.20;51.10
11089;DHT22;5598;48.648;8.908;2023-06-10T15:28:57;31.30;52.00
11089;DHT22;5598;48.648;8.908;2023-06-10T15:31:29;31.50;51.30
11089;DHT22;5598;48.648;8.908;2023-06-10T15:33:56;31.60;50.20
11089;DHT22;5598;48.648;8.908;2023-06-10T15:36:23;31.70;50.00
11089;DHT22;5598;48.648;8.908;2023-06-10T15:38:49;31.80;50.80
11089;DHT22;5598;48.648;8.908;2023-06-10T15:41:18;31.80;50.30
11089;DHT22;5598;48.648;8.908;2023-06-10T15:43:44;31.90;50.90
11089;DHT22;5598;48.648;8.908;2023-06-10T15:46:12;32.00;50.00
11089;DHT22;5598;48.648;8.908;2023-06-10T15:48:39;31.90;50.50
11089;DHT22;5598;48.648;8.908;2023-06-10T15:51:06;31.80;50.30